This is the latest recevied weather packets stored in our database for station/object VK3AFQ-13. If no packets are shown the sender has not sent any weather packets the latest 10 day(s).
| Time | Temp. | Humidity | Pressure | Rain* | Wind** | Luminosity | Snow |
|---|---|---|---|---|---|---|---|
| 1777890663 | 12.22° C | 93% | 1016.5 hPa | - | - | - | - |
| 1777889764 | 12.22° C | 93% | 1016.3 hPa | - | - | - | - |
| 1777888862 | 12.22° C | 93% | 1016.2 hPa | - | - | - | - |
| 1777887963 | 12.22° C | 93% | 1016 hPa | - | - | - | - |
| 1777887064 | 12.22° C | 94% | 1015.9 hPa | - | - | - | - |
| 1777886164 | 12.22° C | 94% | 1015.6 hPa | - | - | - | - |
| 1777885263 | 12.22° C | 94% | 1015.2 hPa | - | - | - | - |
| 1777884365 | 12.22° C | 93% | 1015.1 hPa | - | - | - | - |
| 1777883464 | 12.22° C | 93% | 1014.9 hPa | - | - | - | - |
| 1777882563 | 12.22° C | 93% | 1014.5 hPa | - | - | - | - |
| 1777881662 | 12.22° C | 93% | 1014.3 hPa | - | - | - | - |
| 1777880764 | 11.67° C | 92% | 1014.2 hPa | - | - | - | - |
| 1777879864 | 12.22° C | 91% | 1013.7 hPa | - | - | - | - |
| 1777878963 | 12.22° C | 88% | 1013.4 hPa | - | - | - | - |
| 1777878062 | 15.56° C | 81% | 1013.8 hPa | - | - | - | - |
| 1777877164 | 16.67° C | 75% | 1013 hPa | - | - | - | - |
| 1777876264 | 16.67° C | 77% | 1012.9 hPa | - | - | - | - |
| 1777875364 | 16.67° C | 76% | 1012.9 hPa | - | - | - | - |
| 1777874462 | 16.67° C | 77% | 1012.9 hPa | - | - | - | - |
| 1777873564 | 16.67° C | 78% | 1013 hPa | - | - | - | - |
| 1777872664 | 15.56° C | 83% | 1012.8 hPa | - | - | - | - |
| 1777871763 | 16.11° C | 77% | 1013 hPa | - | - | - | - |
| 1777870862 | 17.78° C | 70% | 1012.8 hPa | - | - | - | - |
| 1777869963 | 18.33° C | 65% | 1012.5 hPa | - | - | - | - |
| 1777869063 | 17.78° C | 65% | 1012.5 hPa | - | - | - | - |
* Rain since midnight (hover to see other rain measurements)
** Current wind speed in m/s (hover to see current wind gust speed)